»·PEaware :: PT-LOE KBLH-KTRM

PT-LOE :: KBLH-KTRM

FLIGHT INFORMATION

Flight Status: Arrived
Operator: Privately registered:
Brazil
More flights under this callsign
Pilot: Lauro E. (15247)
Aircraft: CESSNA 172 SKYHAWK
(C172)
More flights by this aircraft type
Origin: KBLH Blythe
United States
Destination: KTRM Desert Resorts Regl
United States
More flights between these airports :: More routes between these airports
Route:
File this flight plan on PilotEdge
Remarks:
Altitude:
(Current/Filed)
4,500ft
Speed:
(Current/Filed)
110kts
Departed: 02-May-17 12:54 PM
Arrived: 02-May-17 01:39 PM
Distance/Time
Traveled:
72nm/0:45
Distance/Time
To Go:
Arrived

Flight Plot

Page will automatically refresh every two minutes.

Flight plan parsing failed; only flown route is shown


Map Options




Map Legend


Flown Route
Filed Route
Departure Airport
Arrival Airport
Navaid (VOR, NDB)
Fix

Horizontal Profiles

Position Reports

Time Latitude Longitude Heading Altitude Ground
Speed
02-May-17 12:53 33.615594 -114.706270 357 402ft 0kts
02-May-17 12:54 33.615594 -114.706270 357 402ft 0kts
02-May-17 12:55 33.616223 -114.706541 298 402ft 11kts
02-May-17 12:56 33.616333 -114.726915 269 731ft 86kts
02-May-17 12:57 33.615413 -114.756142 266 1397ft 93kts
02-May-17 12:58 33.613999 -114.788241 263 2051ft 94kts
02-May-17 12:59 33.611134 -114.819407 265 2645ft 95kts
02-May-17 13:00 33.614556 -114.852986 278 3065ft 103kts
02-May-17 13:01 33.617575 -114.887581 277 3493ft 106kts
02-May-17 13:02 33.619868 -114.922786 272 3864ft 104kts
02-May-17 13:03 33.622232 -114.956247 278 4194ft 101kts
02-May-17 13:04 33.622784 -114.990734 270 4401ft 108kts
02-May-17 13:05 33.622631 -115.026793 269 4572ft 111kts
02-May-17 13:06 33.622210 -115.065259 272 4569ft 117kts
02-May-17 13:07 33.623586 -115.104557 274 4568ft 117kts
02-May-17 13:08 33.625166 -115.141715 274 4568ft 107kts
02-May-17 13:09 33.626702 -115.176884 274 4569ft 105kts
02-May-17 13:10 33.630825 -115.211503 281 4567ft 105kts
02-May-17 13:11 33.636000 -115.245927 283 4559ft 105kts
02-May-17 13:12 33.641804 -115.280506 283 4533ft 107kts
02-May-17 13:13 33.647492 -115.315862 283 4520ft 107kts
02-May-17 13:14 33.653138 -115.351350 283 4514ft 108kts
02-May-17 13:15 33.661210 -115.386235 290 4507ft 109kts
02-May-17 13:16 33.670709 -115.421219 290 4501ft 111kts
02-May-17 13:17 33.680125 -115.456566 277 4496ft 113kts
02-May-17 13:18 33.682983 -115.493922 273 4497ft 113kts
02-May-17 13:19 33.679530 -115.531138 252 4497ft 113kts
02-May-17 13:20 33.670583 -115.567467 252 4497ft 113kts
02-May-17 13:21 33.661926 -115.602575 252 4562ft 110kts
02-May-17 13:22 33.659787 -115.640208 275 4378ft 112kts
02-May-17 13:23 33.662752 -115.675432 273 4656ft 110kts
02-May-17 13:24 33.661671 -115.712410 260 4824ft 115kts
02-May-17 13:25 33.657566 -115.749603 264 4755ft 112kts
02-May-17 13:26 33.654014 -115.787036 267 4635ft 114kts
02-May-17 13:27 33.653159 -115.824423 266 4549ft 112kts
02-May-17 13:28 33.652118 -115.861957 267 4461ft 112kts
02-May-17 13:29 33.654052 -115.899563 275 4134ft 115kts
02-May-17 13:30 33.659702 -115.937854 285 3695ft 116kts
02-May-17 13:31 33.663176 -115.976108 267 3301ft 115kts
02-May-17 13:32 33.661367 -116.015273 267 2781ft 117kts
02-May-17 13:33 33.658528 -116.054338 256 2251ft 115kts
02-May-17 13:34 33.651264 -116.091725 249 1755ft 113kts
02-May-17 13:35 33.640749 -116.126759 245 1222ft 110kts
02-May-17 13:36 33.635957 -116.160261 312 922ft 101kts
02-May-17 13:37 33.653426 -116.182317 316 708ft 87kts
02-May-17 13:38 33.649302 -116.196845 133 387ft 64kts
02-May-17 13:39 33.638644 -116.181415 129 180ft 61kts
02-May-17 13:40 33.627119 -116.167339 134 -110ft 47kts
02-May-17 13:41 33.625670 -116.164712 49 -110ft 0kts
02-May-17 13:42 33.627982 -116.167250 315 -110ft 23kts
02-May-17 13:43 33.631365 -116.170866 2 -110ft 12kts
02-May-17 13:44 33.634131 -116.169025 90 -110ft 15kts
02-May-17 13:45 33.634092 -116.163407 84 -110ft 17kts
02-May-17 13:46 33.634985 -116.163089 270 -110ft 0kts

Navigation Log

Ident Type
Flight plan parsing failed, navigation log unavailable